createdAt,value
2019-04-21T00:00:18.632Z,977.71
2019-04-21T00:01:18.262Z,977.68
2019-04-21T00:02:24.167Z,977.68
2019-04-21T00:03:26.714Z,977.64
2019-04-21T00:04:30.037Z,977.64
2019-04-21T00:05:30.715Z,977.68
2019-04-21T00:06:35.340Z,977.65
2019-04-21T00:07:37.330Z,977.60
2019-04-21T00:08:39.539Z,977.56
2019-04-21T00:09:42.402Z,977.55
2019-04-21T00:10:44.548Z,977.53
2019-04-21T00:11:35.101Z,977.53
2019-04-21T00:12:34.437Z,977.55
2019-04-21T00:13:33.158Z,977.51
2019-04-21T00:14:27.533Z,977.52
2019-04-21T00:15:29.122Z,977.45
2019-04-21T00:16:25.630Z,977.45
2019-04-21T00:17:20.844Z,977.44
2019-04-21T00:18:17.333Z,977.40
2019-04-21T00:19:21.758Z,977.36
2019-04-21T00:20:26.071Z,977.38
2019-04-21T00:21:26.622Z,977.40
2019-04-21T00:22:33.145Z,977.37
2019-04-21T00:23:36.186Z,977.42
2019-04-21T00:24:30.483Z,977.40
2019-04-21T00:25:32.155Z,977.34
2019-04-21T00:26:33.556Z,977.35
2019-04-21T00:27:33.378Z,977.34
2019-04-21T00:28:47.262Z,977.29
2019-04-21T00:29:38.314Z,977.29
2019-04-21T00:30:39.775Z,977.32
2019-04-21T00:31:36.674Z,977.27
2019-04-21T00:32:28.121Z,977.25
2019-04-21T00:33:23.231Z,977.20
2019-04-21T00:34:17.502Z,977.20
2019-04-21T00:35:21.060Z,977.19
2019-04-21T00:36:22.664Z,977.17
2019-04-21T00:37:26.717Z,977.21
2019-04-21T00:38:40.176Z,977.13
2019-04-21T00:39:43.832Z,977.15
2019-04-21T00:40:36.547Z,977.11
2019-04-21T00:41:37.671Z,977.12
2019-04-21T00:42:37.415Z,977.13
2019-04-21T00:43:35.371Z,977.12
2019-04-21T00:44:26.860Z,977.04
2019-04-21T00:45:31.388Z,977.09
2019-04-21T00:46:32.334Z,977.00
2019-04-21T00:47:34.100Z,977.01
2019-04-21T00:48:37.861Z,977.00
2019-04-21T00:49:31.135Z,977.01
2019-04-21T00:50:40.457Z,976.96
2019-04-21T00:51:49.358Z,977.00
2019-04-21T00:53:43.536Z,976.99
2019-04-21T00:54:41.528Z,977.07
2019-04-21T00:55:38.570Z,977.01
2019-04-21T00:56:46.677Z,976.95
2019-04-21T00:57:38.792Z,976.95
2019-04-21T00:58:39.573Z,976.91
2019-04-21T00:59:40.310Z,976.93
2019-04-21T01:00:32.487Z,976.89
2019-04-21T01:01:39.410Z,976.86
2019-04-21T01:02:40.244Z,976.87
2019-04-21T01:03:38.448Z,976.88
2019-04-21T01:04:39.936Z,976.92
2019-04-21T01:05:43.522Z,976.88
2019-04-21T01:06:36.923Z,976.90
2019-04-21T01:07:37.203Z,976.85
2019-04-21T01:08:39.972Z,976.82
2019-04-21T01:09:34.354Z,976.80
2019-04-21T01:10:28.662Z,976.78
2019-04-21T01:11:37.686Z,976.80
2019-04-21T01:12:37.364Z,976.80
2019-04-21T01:13:41.673Z,976.83
2019-04-21T01:14:46.942Z,976.79
2019-04-21T01:16:39.317Z,976.77
2019-04-21T01:17:35.787Z,976.74
2019-04-21T01:18:41.005Z,976.69
2019-04-21T01:19:33.426Z,976.65
2019-04-21T01:20:17.485Z,976.70
2019-04-21T01:21:15.004Z,976.71
2019-04-21T01:22:14.975Z,976.71
2019-04-21T01:23:14.921Z,976.63
2019-04-21T01:24:21.730Z,976.60
2019-04-21T01:25:22.699Z,976.67
2019-04-21T01:26:29.620Z,976.71
2019-04-21T01:27:25.201Z,976.71
2019-04-21T01:28:31.582Z,976.65
2019-04-21T01:29:37.441Z,976.67
2019-04-21T01:30:39.027Z,976.62
2019-04-21T01:31:30.526Z,976.62
2019-04-21T01:32:37.562Z,976.58
2019-04-21T01:33:38.508Z,976.59
2019-04-21T01:34:37.702Z,976.58
2019-04-21T01:35:34.974Z,976.53
2019-04-21T01:36:34.765Z,976.56
2019-04-21T01:37:43.795Z,976.58
2019-04-21T01:38:42.841Z,976.53
2019-04-21T01:39:42.789Z,976.51
2019-04-21T01:40:34.861Z,976.54
2019-04-21T01:41:38.926Z,976.52
2019-04-21T01:42:31.492Z,976.47
2019-04-21T01:43:33.377Z,976.48
2019-04-21T01:44:43.157Z,976.46
2019-04-21T01:45:35.623Z,976.44
2019-04-21T01:46:30.939Z,976.42
2019-04-21T01:47:31.495Z,976.45
2019-04-21T01:48:31.838Z,976.42
2019-04-21T01:49:28.198Z,976.43
2019-04-21T01:50:39.311Z,976.41
2019-04-21T01:51:27.848Z,976.43
2019-04-21T01:53:38.527Z,976.47
2019-04-21T01:54:35.103Z,976.42
2019-04-21T01:55:35.708Z,976.39
2019-04-21T01:56:35.694Z,976.35
2019-04-21T01:57:29.658Z,976.42
2019-04-21T01:58:27.030Z,976.43
2019-04-21T01:59:26.995Z,976.41
2019-04-21T02:00:32.804Z,976.42
2019-04-21T02:01:33.365Z,976.44
2019-04-21T02:02:36.118Z,976.38
2019-04-21T02:03:52.939Z,976.36
2019-04-21T02:04:41.534Z,976.38
2019-04-21T02:05:37.684Z,976.39
2019-04-21T02:06:37.789Z,976.37
2019-04-21T02:07:32.682Z,976.38
2019-04-21T02:08:31.348Z,976.37
2019-04-21T02:09:32.443Z,976.33
2019-04-21T02:10:40.435Z,976.31
2019-04-21T02:11:37.336Z,976.31
2019-04-21T02:12:31.829Z,976.31
2019-04-21T02:13:35.203Z,976.26
2019-04-21T02:14:41.231Z,976.25
2019-04-21T02:15:42.264Z,976.29
2019-04-21T02:16:35.993Z,976.28
2019-04-21T02:17:34.309Z,976.25
2019-04-21T02:18:35.250Z,976.27
2019-04-21T02:19:28.729Z,976.23
2019-04-21T02:20:25.872Z,976.25
2019-04-21T02:21:31.796Z,976.23
2019-04-21T02:22:56.108Z,976.22
2019-04-21T02:23:38.507Z,976.21
2019-04-21T02:24:47.949Z,976.22
2019-04-21T02:25:50.639Z,976.21
2019-04-21T02:26:37.622Z,976.26
2019-04-21T02:27:36.434Z,976.24
2019-04-21T02:28:44.058Z,976.21
2019-04-21T02:29:34.830Z,976.23
2019-04-21T02:30:47.143Z,976.22
2019-04-21T02:32:48.025Z,976.20
2019-04-21T02:33:54.306Z,976.27
2019-04-21T02:35:03.167Z,976.26
2019-04-21T02:37:00.465Z,976.26
2019-04-21T02:38:50.295Z,976.15
2019-04-21T02:39:49.778Z,976.15
2019-04-21T02:41:03.185Z,976.19
2019-04-21T02:41:51.558Z,976.21
2019-04-21T02:42:46.486Z,976.16
2019-04-21T02:43:48.221Z,976.13
2019-04-21T02:48:46.945Z,976.12
2019-04-21T02:51:45.227Z,976.10
2019-04-21T02:55:17.976Z,976.04
2019-04-21T02:56:46.100Z,976.04
2019-04-21T02:57:51.929Z,976.01
2019-04-21T02:58:53.107Z,975.99
2019-04-21T03:02:40.710Z,975.95
2019-04-21T03:03:37.794Z,975.95
2019-04-21T03:05:45.417Z,975.94
2019-04-21T03:06:33.080Z,975.91
2019-04-21T03:08:26.217Z,975.92
2019-04-21T03:09:29.761Z,975.92
2019-04-21T03:10:26.244Z,975.87
2019-04-21T03:11:17.054Z,975.82
2019-04-21T03:12:22.640Z,975.89
2019-04-21T03:14:36.807Z,975.85
2019-04-21T03:15:23.515Z,975.83
2019-04-21T03:16:23.318Z,975.83
2019-04-21T03:17:35.863Z,975.81
2019-04-21T03:18:24.361Z,975.78
2019-04-21T03:19:33.187Z,975.77
2019-04-21T03:20:23.693Z,975.79
2019-04-21T03:21:26.578Z,975.80
2019-04-21T03:22:24.355Z,975.75
2019-04-21T03:23:27.610Z,975.76
2019-04-21T03:24:18.394Z,975.73
2019-04-21T03:25:38.141Z,975.73
2019-04-21T03:27:28.854Z,975.72
2019-04-21T03:28:28.275Z,975.71
2019-04-21T03:29:36.717Z,975.74
2019-04-21T03:32:50.599Z,975.67
2019-04-21T03:34:38.348Z,975.70
2019-04-21T03:35:57.884Z,975.65
2019-04-21T03:36:41.038Z,975.66
2019-04-21T03:37:25.150Z,975.70
2019-04-21T03:38:28.880Z,975.68
2019-04-21T03:39:18.285Z,975.69
2019-04-21T03:41:22.197Z,975.67
2019-04-21T03:43:21.354Z,975.66
2019-04-21T03:44:26.745Z,975.66
2019-04-21T03:45:32.966Z,975.66
2019-04-21T03:46:23.221Z,975.66
2019-04-21T03:47:27.913Z,975.62
2019-04-21T03:48:36.459Z,975.60
2019-04-21T03:49:27.843Z,975.59
2019-04-21T03:51:20.214Z,975.62
2019-04-21T03:52:49.667Z,975.63
2019-04-21T03:54:15.875Z,975.62
2019-04-21T03:56:27.770Z,975.59
2019-04-21T03:57:52.858Z,975.58
2019-04-21T03:59:19.735Z,975.59
2019-04-21T04:00:35.276Z,975.60
2019-04-21T04:01:16.330Z,975.60
2019-04-21T04:02:23.932Z,975.64
2019-04-21T04:05:23.393Z,975.64
2019-04-21T04:06:20.598Z,975.63
2019-04-21T04:07:34.059Z,975.65
2019-04-21T04:08:37.250Z,975.61
2019-04-21T04:09:26.388Z,975.62
2019-04-21T04:11:30.053Z,975.61
2019-04-21T04:12:28.643Z,975.56
2019-04-21T04:13:27.087Z,975.57
2019-04-21T04:14:22.824Z,975.60
2019-04-21T04:15:31.519Z,975.60
2019-04-21T04:16:20.323Z,975.58
2019-04-21T04:17:17.044Z,975.55
2019-04-21T04:18:31.942Z,975.60
2019-04-21T04:19:18.030Z,975.61
2019-04-21T04:21:28.361Z,975.60
2019-04-21T04:22:24.957Z,975.62
2019-04-21T04:23:20.634Z,975.60
2019-04-21T04:25:19.167Z,975.62
2019-04-21T04:26:22.646Z,975.60
2019-04-21T04:27:35.259Z,975.58
2019-04-21T04:28:25.717Z,975.56
2019-04-21T04:29:22.462Z,975.57
2019-04-21T04:30:21.679Z,975.58
2019-04-21T04:32:23.679Z,975.55
2019-04-21T04:33:32.257Z,975.57
2019-04-21T04:34:22.591Z,975.63
2019-04-21T04:35:22.083Z,975.63
2019-04-21T04:38:24.153Z,975.62
2019-04-21T04:40:21.444Z,975.62
2019-04-21T04:41:28.905Z,975.58
2019-04-21T04:44:30.314Z,975.61
2019-04-21T04:45:26.623Z,975.61
2019-04-21T04:46:20.331Z,975.59
2019-04-21T04:47:16.664Z,975.59
2019-04-21T04:48:25.993Z,975.60
2019-04-21T04:49:30.079Z,975.58
2019-04-21T04:50:20.130Z,975.61
2019-04-21T04:51:22.942Z,975.57
2019-04-21T04:52:31.309Z,975.58
2019-04-21T04:53:20.277Z,975.59
2019-04-21T04:54:32.437Z,975.57
2019-04-21T04:55:19.191Z,975.54
2019-04-21T04:56:18.329Z,975.53
2019-04-21T04:57:29.077Z,975.49
2019-04-21T04:58:19.165Z,975.49
2019-04-21T04:59:32.548Z,975.52
2019-04-21T05:00:28.119Z,975.52
2019-04-21T05:03:31.776Z,975.51
2019-04-21T05:04:23.739Z,975.53
2019-04-21T05:06:34.940Z,975.53
2019-04-21T05:07:25.136Z,975.46
2019-04-21T05:09:31.943Z,975.50
2019-04-21T05:10:22.227Z,975.55
2019-04-21T05:11:37.729Z,975.56
2019-04-21T05:12:08.943Z,975.53
2019-04-21T05:13:18.196Z,975.51
2019-04-21T05:14:16.775Z,975.50
2019-04-21T05:15:11.483Z,975.49
2019-04-21T05:16:32.107Z,975.53
2019-04-21T05:17:21.779Z,975.46
2019-04-21T05:18:18.566Z,975.46
2019-04-21T05:20:15.807Z,975.49
2019-04-21T05:21:24.457Z,975.50
2019-04-21T05:22:16.855Z,975.49
2019-04-21T05:23:16.152Z,975.55
2019-04-21T05:24:07.522Z,975.52
2019-04-21T05:25:03.515Z,975.50
2019-04-21T05:26:00.022Z,975.47
2019-04-21T05:27:03.121Z,975.46
2019-04-21T05:28:05.000Z,975.49
2019-04-21T05:29:01.975Z,975.49
2019-04-21T05:30:07.164Z,975.46
2019-04-21T05:31:14.092Z,975.45
2019-04-21T05:33:09.710Z,975.50
2019-04-21T05:34:09.503Z,975.47
2019-04-21T05:35:07.992Z,975.49
2019-04-21T05:36:09.403Z,975.46
2019-04-21T05:37:10.714Z,975.46
2019-04-21T05:38:06.209Z,975.45
2019-04-21T05:40:04.399Z,975.45
2019-04-21T05:41:02.466Z,975.52
2019-04-21T05:41:55.213Z,975.50
2019-04-21T05:43:14.100Z,975.49
2019-04-21T05:44:12.819Z,975.49
2019-04-21T05:45:20.490Z,975.50
2019-04-21T05:46:15.621Z,975.53
2019-04-21T05:47:20.865Z,975.49
2019-04-21T05:48:18.493Z,975.49
2019-04-21T05:49:10.571Z,975.45
2019-04-21T05:50:06.541Z,975.48
2019-04-21T05:51:08.006Z,975.51
2019-04-21T05:52:06.642Z,975.51
2019-04-21T05:53:08.829Z,975.45
2019-04-21T05:54:15.175Z,975.49
2019-04-21T05:55:09.424Z,975.44
2019-04-21T05:56:13.692Z,975.46
2019-04-21T05:57:08.298Z,975.48
2019-04-21T05:58:08.568Z,975.46
2019-04-21T05:59:07.915Z,975.45
2019-04-21T06:00:12.451Z,975.45
2019-04-21T06:01:14.847Z,975.46
2019-04-21T06:02:18.468Z,975.44
2019-04-21T06:03:15.154Z,975.48
2019-04-21T06:04:15.623Z,975.49
2019-04-21T06:05:30.162Z,975.43
2019-04-21T06:06:18.042Z,975.47
2019-04-21T06:07:13.313Z,975.41
2019-04-21T06:08:09.782Z,975.47
2019-04-21T06:09:11.456Z,975.49
2019-04-21T06:10:08.481Z,975.49
2019-04-21T06:11:14.818Z,975.44
2019-04-21T06:12:10.791Z,975.47
2019-04-21T06:13:17.049Z,975.47
2019-04-21T06:14:08.096Z,975.51
2019-04-21T06:15:08.356Z,975.49
2019-04-21T06:16:08.840Z,975.49
2019-04-21T06:17:08.115Z,975.50
2019-04-21T06:18:14.544Z,975.45
2019-04-21T06:19:11.474Z,975.43
2019-04-21T06:20:07.839Z,975.43
2019-04-21T06:21:13.139Z,975.49
2019-04-21T06:22:11.991Z,975.46
2019-04-21T06:23:11.262Z,975.46
2019-04-21T06:24:10.158Z,975.47
2019-04-21T06:25:31.137Z,975.49
2019-04-21T06:27:27.848Z,975.42
2019-04-21T06:28:13.748Z,975.43
2019-04-21T06:29:09.123Z,975.45
2019-04-21T06:30:03.522Z,975.41
2019-04-21T06:32:59.452Z,975.44
2019-04-21T06:34:08.107Z,975.42
2019-04-21T06:35:23.754Z,975.47
2019-04-21T06:36:29.227Z,975.37
2019-04-21T06:37:32.203Z,975.36
2019-04-21T06:38:13.232Z,975.39
2019-04-21T06:41:13.457Z,975.40
2019-04-21T06:42:09.065Z,975.42
2019-04-21T06:43:20.983Z,975.45
2019-04-21T06:44:12.852Z,975.47
2019-04-21T06:45:12.911Z,975.44
2019-04-21T06:46:08.898Z,975.41
2019-04-21T06:47:17.938Z,975.43
2019-04-21T06:48:12.198Z,975.47
2019-04-21T06:49:21.781Z,975.47
2019-04-21T06:50:09.651Z,975.52
2019-04-21T06:51:09.358Z,975.51
2019-04-21T06:52:20.132Z,975.55
2019-04-21T06:53:04.039Z,975.58
2019-04-21T06:54:09.623Z,975.55
2019-04-21T06:55:15.329Z,975.61
2019-04-21T06:56:16.482Z,975.62
2019-04-21T06:57:10.097Z,975.61
2019-04-21T06:58:11.929Z,975.63
2019-04-21T06:59:05.957Z,975.63
2019-04-21T07:00:07.655Z,975.62
2019-04-21T07:01:09.132Z,975.62
2019-04-21T07:02:31.860Z,975.66
2019-04-21T07:03:15.592Z,975.66
2019-04-21T07:04:20.932Z,975.63
2019-04-21T07:05:07.743Z,975.62
2019-04-21T07:06:18.377Z,975.60
2019-04-21T07:07:05.832Z,975.59
2019-04-21T07:08:23.268Z,975.60
2019-04-21T07:09:15.840Z,975.66
2019-04-21T07:10:10.761Z,975.61
2019-04-21T07:11:13.268Z,975.60
2019-04-21T07:12:06.361Z,975.61
2019-04-21T07:13:03.942Z,975.59
2019-04-21T07:15:17.023Z,975.60
2019-04-21T07:16:17.595Z,975.64
2019-04-21T07:17:16.025Z,975.68
2019-04-21T07:18:12.621Z,975.66
2019-04-21T07:19:13.186Z,975.70
2019-04-21T07:21:06.454Z,975.69
2019-04-21T07:22:11.132Z,975.76
2019-04-21T07:23:09.321Z,975.79
2019-04-21T07:24:14.744Z,975.79
2019-04-21T07:25:09.142Z,975.76
2019-04-21T07:26:12.301Z,975.71
2019-04-21T07:27:08.885Z,975.76
2019-04-21T07:28:02.972Z,975.74
2019-04-21T07:29:11.623Z,975.74
2019-04-21T07:30:25.426Z,975.70
2019-04-21T07:31:11.128Z,975.72
2019-04-21T07:32:11.749Z,975.71
2019-04-21T07:33:33.651Z,975.67
2019-04-21T07:35:08.323Z,975.69
2019-04-21T07:36:11.464Z,975.62
2019-04-21T07:37:07.737Z,975.67
2019-04-21T07:38:05.539Z,975.65
2019-04-21T07:39:06.239Z,975.66
2019-04-21T07:40:05.197Z,975.67
2019-04-21T07:40:59.456Z,975.69
2019-04-21T07:42:06.885Z,975.69
2019-04-21T07:43:02.584Z,975.58
2019-04-21T07:44:00.159Z,975.62
2019-04-21T07:44:59.279Z,975.61
2019-04-21T07:45:59.855Z,975.61
2019-04-21T07:46:58.530Z,975.59
2019-04-21T07:48:09.604Z,975.61
2019-04-21T07:49:11.109Z,975.59
2019-04-21T07:50:07.316Z,975.60
2019-04-21T07:51:11.134Z,975.55
2019-04-21T07:52:11.542Z,975.59
2019-04-21T07:54:11.783Z,975.62
2019-04-21T07:55:49.623Z,975.58
2019-04-21T07:57:00.865Z,975.60
2019-04-21T07:58:12.459Z,975.61
2019-04-21T07:59:02.120Z,975.58
2019-04-21T08:00:22.173Z,975.54
2019-04-21T08:01:11.908Z,975.59
2019-04-21T08:02:09.051Z,975.56
2019-04-21T08:03:08.105Z,975.51
2019-04-21T08:04:16.560Z,975.51
2019-04-21T08:06:02.217Z,975.51
2019-04-21T08:07:05.206Z,975.50
2019-04-21T08:07:59.509Z,975.49
2019-04-21T08:09:07.433Z,975.49
2019-04-21T08:10:02.889Z,975.50
2019-04-21T08:11:07.390Z,975.45
2019-04-21T08:11:58.913Z,975.44
2019-04-21T08:13:09.802Z,975.40
2019-04-21T08:14:08.392Z,975.39
2019-04-21T08:15:13.626Z,975.41
2019-04-21T08:16:17.461Z,975.43
2019-04-21T08:17:02.826Z,975.43
2019-04-21T08:18:09.270Z,975.42
2019-04-21T08:19:09.624Z,975.40
2019-04-21T08:20:04.349Z,975.44
2019-04-21T08:21:05.775Z,975.42
2019-04-21T08:22:11.010Z,975.46
2019-04-21T08:23:04.686Z,975.41
2019-04-21T08:24:06.186Z,975.37
2019-04-21T08:25:02.889Z,975.45
2019-04-21T08:26:07.695Z,975.44
2019-04-21T08:27:10.860Z,975.41
2019-04-21T08:28:05.973Z,975.43
2019-04-21T08:29:12.705Z,975.41
2019-04-21T08:30:04.464Z,975.48
2019-04-21T08:31:09.932Z,975.46
2019-04-21T08:32:11.923Z,975.46
2019-04-21T08:34:09.651Z,975.44
2019-04-21T08:35:37.925Z,975.43
2019-04-21T08:37:04.043Z,975.45
2019-04-21T08:39:07.249Z,975.42
2019-04-21T08:41:10.579Z,975.32
2019-04-21T08:42:06.217Z,975.32
2019-04-21T08:43:01.174Z,975.33
2019-04-21T08:44:02.238Z,975.33
2019-04-21T08:45:07.378Z,975.34
2019-04-21T08:46:05.431Z,975.36
2019-04-21T08:47:07.430Z,975.36
2019-04-21T08:48:05.486Z,975.37
2019-04-21T08:49:08.117Z,975.31
2019-04-21T08:50:00.773Z,975.31
2019-04-21T08:51:14.017Z,975.38
2019-04-21T08:52:15.275Z,975.39
2019-04-21T08:53:07.980Z,975.37
2019-04-21T08:54:09.528Z,975.33
2019-04-21T08:55:03.625Z,975.36
2019-04-21T08:56:10.302Z,975.38
2019-04-21T08:57:07.808Z,975.31
2019-04-21T08:59:14.635Z,975.32
2019-04-21T09:00:05.081Z,975.33
2019-04-21T09:01:14.143Z,975.40
2019-04-21T09:02:09.176Z,975.39
2019-04-21T09:03:10.564Z,975.42
2019-04-21T09:04:06.069Z,975.46
2019-04-21T09:05:05.083Z,975.49
2019-04-21T09:06:09.208Z,975.61
2019-04-21T09:08:04.039Z,975.52
2019-04-21T09:09:03.607Z,975.48
2019-04-21T09:10:03.242Z,975.48
2019-04-21T09:10:59.379Z,975.60
2019-04-21T09:12:05.418Z,975.64
2019-04-21T09:13:05.032Z,975.68
2019-04-21T09:14:01.350Z,975.70
2019-04-21T09:15:00.818Z,975.69
2019-04-21T09:15:58.094Z,975.77
2019-04-21T09:17:00.480Z,975.69
2019-04-21T09:17:59.620Z,975.68
2019-04-21T09:18:58.075Z,975.80
2019-04-21T09:21:04.502Z,975.90
2019-04-21T09:22:02.317Z,975.97
2019-04-21T09:23:06.889Z,976.02
2019-04-21T09:24:04.586Z,975.95
2019-04-21T09:25:01.548Z,975.90
2019-04-21T09:26:05.986Z,975.87
2019-04-21T09:27:04.879Z,975.94
2019-04-21T09:28:02.382Z,976.02
2019-04-21T09:28:58.397Z,976.01
2019-04-21T09:29:52.374Z,976.00
2019-04-21T09:30:50.367Z,976.15
2019-04-21T09:31:47.744Z,976.23
2019-04-21T09:32:49.474Z,976.22
2019-04-21T09:33:50.140Z,976.18
2019-04-21T09:34:47.123Z,976.27
2019-04-21T09:35:49.185Z,976.24
2019-04-21T09:36:51.203Z,976.14
2019-04-21T09:37:53.415Z,976.10
2019-04-21T09:38:54.690Z,976.10
2019-04-21T09:39:50.013Z,975.91
2019-04-21T09:40:48.985Z,975.86
2019-04-21T09:41:45.006Z,975.86
2019-04-21T09:42:55.421Z,975.82
2019-04-21T09:43:48.988Z,975.88
2019-04-21T09:44:47.723Z,975.69
2019-04-21T09:45:45.353Z,975.53
2019-04-21T09:46:50.693Z,975.43
2019-04-21T09:47:56.689Z,975.28
2019-04-21T09:48:53.860Z,975.15
2019-04-21T09:49:45.262Z,975.05
2019-04-21T09:50:45.837Z,975.06
2019-04-21T09:51:45.910Z,975.05
2019-04-21T09:52:50.127Z,975.12
2019-04-21T09:53:54.577Z,975.15
2019-04-21T09:54:52.040Z,975.20
2019-04-21T09:55:51.348Z,975.20
2019-04-21T09:56:52.454Z,975.19
2019-04-21T09:57:51.567Z,975.23
2019-04-21T09:58:49.763Z,975.19
2019-04-21T09:59:55.762Z,975.18
2019-04-21T10:01:00.161Z,975.15
2019-04-21T10:01:55.941Z,975.13
2019-04-21T10:02:53.490Z,975.10
2019-04-21T10:03:48.657Z,975.09
2019-04-21T10:04:46.105Z,975.08
2019-04-21T10:05:45.240Z,975.04
2019-04-21T10:06:45.318Z,974.98
2019-04-21T10:07:44.857Z,974.95
2019-04-21T10:08:51.845Z,974.73
2019-04-21T10:09:45.641Z,974.53
2019-04-21T10:10:44.847Z,974.39
2019-04-21T10:11:45.961Z,974.19
2019-04-21T10:12:45.469Z,974.10
2019-04-21T10:13:44.834Z,973.98
2019-04-21T10:14:45.215Z,973.97
2019-04-21T10:15:45.977Z,973.89
2019-04-21T10:16:45.095Z,973.90
2019-04-21T10:17:44.806Z,973.97
2019-04-21T10:18:45.987Z,974.01
2019-04-21T10:19:44.807Z,973.98
2019-04-21T10:20:44.884Z,973.98
2019-04-21T10:21:44.796Z,973.99
2019-04-21T10:22:44.839Z,974.08
2019-04-21T10:23:45.680Z,974.10
2019-04-21T10:24:44.781Z,974.16
2019-04-21T10:25:44.778Z,974.15
2019-04-21T10:26:45.192Z,974.11
2019-04-21T10:27:45.264Z,974.13
2019-04-21T10:28:44.763Z,974.18
2019-04-21T10:29:45.369Z,974.14
2019-04-21T10:30:44.820Z,974.13
2019-04-21T10:31:45.019Z,974.21
2019-04-21T10:32:45.957Z,974.22
2019-04-21T10:33:44.737Z,974.15
2019-04-21T10:34:45.248Z,974.16
2019-04-21T10:35:44.727Z,974.15
2019-04-21T10:36:44.925Z,974.08
2019-04-21T10:37:53.900Z,974.05
2019-04-21T10:38:51.289Z,974.05
2019-04-21T10:39:45.382Z,974.04
2019-04-21T10:40:45.564Z,974.01
2019-04-21T10:41:45.779Z,973.98
2019-04-21T10:42:45.895Z,973.91
2019-04-21T10:43:45.209Z,973.99
2019-04-21T10:44:45.206Z,973.88
2019-04-21T10:45:44.687Z,973.90
2019-04-21T10:46:47.343Z,973.85
2019-04-21T10:47:45.025Z,973.91
2019-04-21T10:48:44.671Z,973.88
2019-04-21T10:49:44.888Z,973.87
2019-04-21T10:50:45.363Z,973.88
2019-04-21T10:51:44.659Z,973.89
2019-04-21T10:52:44.899Z,973.83
2019-04-21T10:53:46.603Z,973.85
2019-04-21T10:55:10.114Z,973.83
2019-04-21T10:56:01.507Z,973.82
2019-04-21T10:56:46.096Z,973.87
2019-04-21T10:57:44.628Z,973.79
2019-04-21T10:58:44.638Z,973.79
2019-04-21T10:59:47.878Z,973.78
2019-04-21T11:00:46.047Z,973.78
2019-04-21T11:01:45.279Z,973.80
2019-04-21T11:02:44.610Z,973.79
2019-04-21T11:03:44.805Z,973.83
2019-04-21T11:04:45.447Z,973.83
2019-04-21T11:05:45.021Z,973.78
2019-04-21T11:06:44.580Z,973.73
2019-04-21T11:07:55.325Z,973.80
2019-04-21T11:08:48.598Z,973.77
2019-04-21T11:09:44.573Z,973.77
2019-04-21T11:10:45.654Z,973.77
2019-04-21T11:11:46.821Z,973.76
2019-04-21T11:12:46.250Z,973.71
2019-04-21T11:13:44.548Z,973.67
2019-04-21T11:14:45.212Z,973.67
2019-04-21T11:15:45.414Z,973.63
2019-04-21T11:16:46.292Z,973.64
2019-04-21T11:17:45.560Z,973.59
2019-04-21T11:18:44.519Z,973.61
2019-04-21T11:19:44.516Z,973.59
2019-04-21T11:20:44.798Z,973.58
2019-04-21T11:21:44.943Z,973.57
2019-04-21T11:22:44.497Z,973.57
2019-04-21T11:23:45.802Z,973.56
2019-04-21T11:24:44.979Z,973.51
2019-04-21T11:25:44.486Z,973.54
2019-04-21T11:26:45.485Z,973.52
2019-04-21T11:27:44.890Z,973.52
2019-04-21T11:28:45.248Z,973.49
2019-04-21T11:29:44.472Z,973.48
2019-04-21T11:30:44.577Z,973.47
2019-04-21T11:31:45.243Z,973.50
2019-04-21T11:32:46.319Z,973.52
2019-04-21T11:33:45.271Z,973.51
2019-04-21T11:34:45.302Z,973.54
2019-04-21T11:35:45.500Z,973.50
2019-04-21T11:36:44.437Z,973.47
2019-04-21T11:37:44.426Z,973.51
2019-04-21T11:39:05.607Z,973.49
2019-04-21T11:39:54.584Z,973.47
2019-04-21T11:40:45.543Z,973.51
2019-04-21T11:41:45.636Z,973.49
2019-04-21T11:42:44.399Z,973.47
2019-04-21T11:43:45.352Z,973.47
2019-04-21T11:44:45.016Z,973.47
2019-04-21T11:45:44.455Z,973.47
2019-04-21T11:46:44.593Z,973.43
2019-04-21T11:47:44.372Z,973.40
2019-04-21T11:48:44.368Z,973.34
2019-04-21T11:49:45.274Z,973.34
2019-04-21T11:50:44.357Z,973.36
2019-04-21T11:51:44.995Z,973.32
2019-04-21T11:52:45.161Z,973.29
2019-04-21T11:53:44.340Z,973.33
2019-04-21T11:54:44.659Z,973.33
2019-04-21T11:55:47.005Z,973.30
2019-04-21T11:56:45.126Z,973.33
2019-04-21T11:57:46.904Z,973.29
2019-04-21T11:58:45.731Z,973.35
2019-04-21T11:59:44.310Z,973.32
2019-04-21T12:00:45.378Z,973.28
2019-04-21T12:01:45.581Z,973.28
2019-04-21T12:02:45.624Z,973.20
2019-04-21T12:03:45.450Z,973.19
2019-04-21T12:04:45.409Z,973.13
2019-04-21T12:05:45.485Z,973.11
2019-04-21T12:06:47.222Z,973.18
2019-04-21T12:07:45.145Z,973.10
2019-04-21T12:08:49.033Z,973.12
2019-04-21T12:09:44.257Z,973.11
2019-04-21T12:10:45.105Z,973.08
2019-04-21T12:11:45.336Z,973.09
2019-04-21T12:12:45.343Z,973.06
2019-04-21T12:13:44.234Z,973.06
2019-04-21T12:14:44.229Z,973.04
2019-04-21T12:15:45.141Z,973.02
2019-04-21T12:16:44.217Z,972.97
2019-04-21T12:17:44.211Z,972.95
2019-04-21T12:18:45.112Z,972.94
2019-04-21T12:19:44.762Z,972.90
2019-04-21T12:20:45.157Z,972.91
2019-04-21T12:21:54.586Z,972.90
2019-04-21T12:22:45.337Z,972.92
2019-04-21T12:23:44.787Z,972.91
2019-04-21T12:24:45.011Z,972.91
2019-04-21T12:25:45.308Z,972.84
2019-04-21T12:26:44.506Z,972.87
2019-04-21T12:27:44.159Z,972.85
2019-04-21T12:28:44.155Z,972.87
2019-04-21T12:29:44.151Z,972.87
2019-04-21T12:30:45.265Z,972.80
2019-04-21T12:31:45.417Z,972.80
2019-04-21T12:32:44.355Z,972.77
2019-04-21T12:33:44.149Z,972.74
2019-04-21T12:34:44.198Z,972.73
2019-04-21T12:35:44.118Z,972.69
2019-04-21T12:36:44.119Z,972.65
2019-04-21T12:37:44.821Z,972.65
2019-04-21T12:38:50.944Z,972.62
2019-04-21T12:39:45.034Z,972.58
2019-04-21T12:40:44.392Z,972.60
2019-04-21T12:41:44.642Z,972.55
2019-04-21T12:42:45.396Z,972.55
2019-04-21T12:43:44.527Z,972.55
2019-04-21T12:44:45.157Z,972.55
2019-04-21T12:45:44.176Z,972.51
2019-04-21T12:46:44.058Z,972.53
2019-04-21T12:47:44.108Z,972.51
2019-04-21T12:48:44.345Z,972.53
2019-04-21T12:49:44.041Z,972.50
2019-04-21T12:50:44.032Z,972.46
2019-04-21T12:51:44.146Z,972.46
2019-04-21T12:52:45.255Z,972.43
2019-04-21T12:53:44.015Z,972.39
2019-04-21T12:54:44.023Z,972.37
2019-04-21T12:55:46.028Z,972.38
2019-04-21T12:56:45.305Z,972.24
2019-04-21T12:57:44.001Z,972.30
2019-04-21T12:58:43.986Z,972.33
2019-04-21T12:59:44.678Z,972.28
2019-04-21T13:00:44.949Z,972.22
2019-04-21T13:01:45.184Z,972.27
2019-04-21T13:02:43.965Z,972.31
2019-04-21T13:03:43.961Z,972.27
2019-04-21T13:04:44.019Z,972.24
2019-04-21T13:05:45.309Z,972.21
2019-04-21T13:06:43.943Z,972.19
2019-04-21T13:07:43.943Z,972.19
2019-04-21T13:08:50.968Z,972.15
2019-04-21T13:09:44.321Z,972.16
2019-04-21T13:10:44.311Z,972.12
2019-04-21T13:11:43.912Z,972.06
2019-04-21T13:12:44.009Z,972.06
2019-04-21T13:13:43.952Z,972.03
2019-04-21T13:14:44.080Z,972.03
2019-04-21T13:15:45.250Z,972.02
2019-04-21T13:16:43.877Z,971.99
2019-04-21T13:17:45.619Z,971.98
2019-04-21T13:18:44.972Z,971.97
2019-04-21T13:19:45.244Z,971.91
2019-04-21T13:20:44.368Z,971.91
2019-04-21T13:21:43.849Z,971.90
2019-04-21T13:22:43.877Z,971.84
2019-04-21T13:23:45.087Z,971.84
2019-04-21T13:24:44.099Z,971.83
2019-04-21T13:25:43.827Z,971.81
2019-04-21T13:26:49.554Z,971.70
2019-04-21T13:27:45.169Z,971.81
2019-04-21T13:28:44.642Z,971.82
2019-04-21T13:29:44.074Z,971.82
2019-04-21T13:30:44.451Z,971.70
2019-04-21T13:31:44.556Z,971.76
2019-04-21T13:32:45.180Z,971.76
2019-04-21T13:33:44.029Z,971.74
2019-04-21T13:34:44.235Z,971.79